Time;durP1;ratioP1;P1;durP2;ratioP2;P2;SDS_P1;SDS_P2;PMS_P1;PMS_P2;Temp;Humidity;BMP_temperature;BMP_pressure;BME280_temperature;BME280_humidity;BME280_pressure;Samples;Min_cycle;Max_cycle;Signal;HPM_P1;HPM_P2
2020/12/28 00:00:23;;;;;;;4.12;3.78;;;;;;;2.61;77.68;98410.19;4372157;32;35139;-83
2020/12/28 00:02:51;;;;;;;8.43;5.30;;;;;;;2.68;77.25;98399.03;4358367;32;33913;-86
2020/12/28 00:05:18;;;;;;;7.62;6.72;;;;;;;2.71;76.87;98399.78;4382734;32;33315;-83
2020/12/28 00:07:48;;;;;;;3.17;2.45;;;;;;;2.92;76.28;98396.97;4389770;32;34511;-83
2020/12/28 00:10:17;;;;;;;13.57;3.42;;;;;;;2.48;77.63;98406.09;4355808;32;34399;-83
2020/12/28 00:12:47;;;;;;;5.10;4.70;;;;;;;2.86;76.53;98394.84;4355599;32;32804;-83
2020/12/28 00:15:25;;;;;;;3.17;2.97;;;;;;;2.76;76.87;98391.34;4356239;32;34155;-86
2020/12/28 00:17:58;;;;;;;3.28;2.65;;;;;;;2.78;76.51;98396.50;4368898;32;33210;-83
2020/12/28 00:20:26;;;;;;;5.47;4.53;;;;;;;2.80;76.91;98382.28;4370233;32;34163;-84
2020/12/28 00:22:54;;;;;;;4.25;4.05;;;;;;;2.27;79.25;98379.03;4358136;32;35131;-82
2020/12/28 00:25:25;;;;;;;3.73;3.47;;;;;;;2.53;78.26;98369.81;4353572;32;34098;-83
2020/12/28 00:27:53;;;;;;;5.28;4.87;;;;;;;2.55;78.01;98367.88;4346881;32;32829;-82
2020/12/28 00:30:21;;;;;;;11.00;7.20;;;;;;;2.39;78.55;98372.75;4346111;32;34432;-83
2020/12/28 00:32:48;;;;;;;1.87;1.77;;;;;;;2.67;78.05;98364.22;4358179;32;34283;-84
2020/12/28 00:35:16;;;;;;;;;;;;;;;2.72;77.25;98362.03;4358388;32;33417;-84
2020/12/28 00:37:43;;;;;;;2.50;2.30;;;;;;;2.68;77.48;98362.28;4368073;32;33207;-85
2020/12/28 00:40:10;;;;;;;5.05;4.37;;;;;;;2.69;77.22;98350.00;4355406;32;34987;-84
2020/12/28 00:42:38;;;;;;;3.47;2.92;;;;;;;2.53;78.24;98343.56;4355082;32;32686;-82
2020/12/28 00:45:07;;;;;;;3.50;3.10;;;;;;;2.58;78.08;98342.22;4363661;32;33478;-84
2020/12/28 00:47:36;;;;;;;5.75;4.90;;;;;;;2.80;77.20;98342.03;4343112;32;32216;-84
2020/12/28 00:50:04;;;;;;;3.30;2.78;;;;;;;2.81;77.08;98336.66;4331392;32;35100;-83
2020/12/28 00:52:32;;;;;;;3.30;3.10;;;;;;;2.60;78.13;98344.69;4369908;32;33087;-87
2020/12/28 00:55:00;;;;;;;22.15;8.45;;;;;;;2.72;77.65;98336.59;4345898;32;33003;-83
2020/12/28 00:57:28;;;;;;;4.10;3.78;;;;;;;2.73;77.61;98339.09;4354008;32;34032;-83
2020/12/28 00:59:57;;;;;;;7.12;3.00;;;;;;;3.06;76.39;98333.56;4348786;32;35262;-83
2020/12/28 01:02:26;;;;;;;6.82;4.55;;;;;;;3.12;75.91;98327.78;4369840;32;33815;-83
2020/12/28 01:04:55;;;;;;;6.68;5.78;;;;;;;3.04;76.15;98324.19;4331673;32;31494;-83
2020/12/28 01:07:23;;;;;;;5.90;3.10;;;;;;;2.72;77.51;98324.31;4343356;32;34107;-83
2020/12/28 01:09:51;;;;;;;5.72;4.90;;;;;;;2.96;76.76;98314.31;4331155;32;34729;-84
2020/12/28 01:12:18;;;;;;;3.23;3.03;;;;;;;2.93;76.87;98309.34;4343021;32;34920;-84
2020/12/28 01:14:46;;;;;;;;;;;;;;;2.87;77.11;98309.03;4355600;32;32808;-85
2020/12/28 01:17:13;;;;;;;2.70;2.55;;;;;;;3.05;76.67;98295.13;4368325;32;33918;-83
2020/12/28 01:19:42;;;;;;;6.15;5.55;;;;;;;3.08;76.43;98291.41;4357235;32;34591;-84
2020/12/28 01:22:09;;;;;;;4.22;3.78;;;;;;;2.96;76.90;98282.78;4371738;32;34048;-84
2020/12/28 01:24:36;;;;;;;4.10;3.80;;;;;;;3.01;76.87;98271.87;4384571;32;33067;-83
2020/12/28 01:27:04;;;;;;;7.47;5.12;;;;;;;3.17;76.15;98272.22;4359565;32;33065;-83
2020/12/28 01:29:32;;;;;;;6.43;2.85;;;;;;;2.94;77.13;98270.78;4347554;32;35730;-86
2020/12/28 01:31:59;;;;;;;10.43;4.97;;;;;;;2.85;77.42;98261.06;4372149;32;33205;-83
2020/12/28 01:34:27;;;;;;;4.72;4.32;;;;;;;2.71;78.19;98252.75;4371591;32;33265;-84
2020/12/28 01:36:55;;;;;;;1.30;1.27;;;;;;;2.99;77.06;98245.78;4359460;32;34535;-83
2020/12/28 01:39:22;;;;;;;6.53;3.30;;;;;;;3.30;75.76;98241.25;4384527;32;34073;-87
2020/12/28 01:41:51;;;;;;;1.98;1.50;;;;;;;3.12;76.37;98240.28;4347696;32;35145;-83
2020/12/28 01:44:18;;;;;;;4.43;3.95;;;;;;;2.96;76.91;98235.50;4372300;32;33538;-83
2020/12/28 01:46:46;;;;;;;3.08;2.30;;;;;;;2.76;77.70;98231.19;4359633;32;34168;-82
2020/12/28 01:49:14;;;;;;;6.10;4.65;;;;;;;3.17;76.73;98225.75;4373286;32;34881;-84
2020/12/28 01:51:43;;;;;;;2.08;1.98;;;;;;;2.96;77.19;98214.50;4347033;32;33793;-82
2020/12/28 01:54:11;;;;;;;3.03;2.83;;;;;;;2.77;77.71;98213.66;4359628;32;33289;-82
2020/12/28 01:56:40;;;;;;;8.20;2.60;;;;;;;2.79;78.15;98209.94;4371764;32;34495;-83
2020/12/28 01:59:08;;;;;;;3.12;2.17;;;;;;;3.10;77.19;98208.88;4359873;32;35406;-83
2020/12/28 02:01:39;;;;;;;3.50;3.25;;;;;;;3.03;77.31;98206.94;4383939;32;33841;-84
2020/12/28 02:04:08;;;;;;;4.05;2.70;;;;;;;3.30;76.55;98212.34;4371741;32;32983;-83
2020/12/28 02:06:37;;;;;;;3.55;3.10;;;;;;;3.15;77.02;98219.78;4371888;32;34318;-83
2020/12/28 02:09:05;;;;;;;5.35;2.87;;;;;;;3.37;76.36;98221.34;4359826;32;34240;-83
2020/12/28 02:11:32;;;;;;;3.30;3.00;;;;;;;3.55;75.40;98214.41;4358965;32;33135;-83
2020/12/28 02:14:00;;;;;;;2.72;2.03;;;;;;;3.47;75.57;98220.38;4358938;32;33236;-82
2020/12/28 02:16:28;;;;;;;4.87;4.40;;;;;;;3.43;75.88;98218.16;4372735;32;34726;-82
2020/12/28 02:18:55;;;;;;;5.20;1.85;;;;;;;3.31;76.47;98217.47;4359304;32;35722;-83
2020/12/28 02:21:23;;;;;;;6.20;2.55;;;;;;;3.41;75.96;98213.03;4359002;32;33527;-83
2020/12/28 02:23:51;;;;;;;4.68;4.37;;;;;;;3.68;75.02;98207.09;4359403;32;33939;-83
2020/12/28 02:26:20;;;;;;;2.58;1.67;;;;;;;3.82;74.31;98204.00;4347191;32;33671;-84
2020/12/28 02:28:47;;;;;;;1.27;1.25;;;;;;;3.68;74.86;98202.66;4371387;32;33142;-83
2020/12/28 02:31:15;;;;;;;4.80;3.55;;;;;;;3.62;74.89;98192.66;4372485;32;34225;-83
2020/12/28 02:33:44;;;;;;;1.95;1.85;;;;;;;3.66;74.61;98199.34;4383759;32;32761;-87
2020/12/28 02:36:13;;;;;;;4.65;4.25;;;;;;;3.84;73.89;98204.69;4347580;32;33298;-86
2020/12/28 02:38:40;;;;;;;5.80;3.50;;;;;;;4.00;73.58;98202.31;4383970;32;34685;-82
2020/12/28 02:41:07;;;;;;;3.90;3.58;;;;;;;3.92;73.62;98191.66;4359094;32;34834;-84
2020/12/28 02:43:49;;;;;;;3.62;3.35;;;;;;;4.16;72.66;98186.78;4373228;32;32483;-84
2020/12/28 02:46:34;;;;;;;5.72;4.50;;;;;;;4.11;72.86;98183.72;4352304;32;34382;-83
2020/12/28 02:49:19;;;;;;;3.40;3.12;;;;;;;4.39;71.80;98183.62;4371237;32;33563;-84
2020/12/28 02:52:02;;;;;;;3.97;2.60;;;;;;;4.26;72.15;98183.12;4357433;32;34000;-85
2020/12/28 02:54:56;;;;;;;3.80;3.17;;;;;;;4.69;70.62;98185.97;4354081;32;33810;-85
2020/12/28 02:57:42;;;;;;;2.97;2.78;;;;;;;4.46;71.21;98173.34;4360322;32;34571;-83
2020/12/28 03:00:25;;;;;;;5.68;3.00;;;;;;;4.47;71.30;98167.09;4341678;32;35495;-84
2020/12/28 03:03:20;;;;;;;8.27;4.03;;;;;;;4.54;71.26;98166.38;4340450;32;34612;-83
2020/12/28 03:06:02;;;;;;;3.55;3.03;;;;;;;4.71;70.39;98170.03;4362673;32;32931;-88
2020/12/28 03:08:50;;;;;;;1.52;1.42;;;;;;;4.82;69.90;98159.28;4352189;32;33137;-84
2020/12/28 03:11:38;;;;;;;6.93;3.58;;;;;;;4.69;70.24;98157.00;4346322;32;34586;-84
2020/12/28 03:14:23;;;;;;;7.97;3.72;;;;;;;4.32;71.60;98156.22;4363142;32;34529;-84
2020/12/28 03:17:20;;;;;;;7.78;3.08;;;;;;;3.87;73.33;98147.38;4340424;33;32928;-85
2020/12/28 03:20:06;;;;;;;2.92;2.15;;;;;;;3.99;72.91;98143.59;4349041;32;33149;-89
2020/12/28 03:22:54;;;;;;;4.05;3.78;;;;;;;4.05;73.00;98144.84;4349493;32;34120;-85
2020/12/28 03:25:36;;;;;;;2.70;2.53;;;;;;;4.04;73.14;98145.78;4357574;32;34540;-83
2020/12/28 03:28:24;;;;;;;2.90;2.70;;;;;;;3.77;74.29;98146.56;4360323;32;31777;-84
2020/12/28 03:31:11;;;;;;;5.43;2.77;;;;;;;3.79;74.25;98144.62;4341737;32;33476;-86
2020/12/28 03:33:56;;;;;;;2.75;2.50;;;;;;;3.61;75.20;98145.50;4355544;32;34992;-84
2020/12/28 03:36:48;;;;;;;6.62;2.75;;;;;;;3.37;76.18;98135.44;4342813;32;34173;-85
2020/12/28 03:39:30;;;;;;;4.43;4.03;;;;;;;3.51;75.42;98118.41;4364605;32;32155;-84
2020/12/28 03:42:15;;;;;;;7.43;4.05;;;;;;;3.48;76.05;98113.41;4360228;32;33256;-84
2020/12/28 03:45:01;;;;;;;2.83;2.62;;;;;;;3.09;77.01;98122.31;4372728;32;35381;-85
2020/12/28 03:47:43;;;;;;;4.72;4.43;;;;;;;3.28;77.17;98119.66;4349338;32;33218;-83
2020/12/28 03:50:29;;;;;;;2.80;2.60;;;;;;;3.34;76.90;98133.06;4360055;32;33035;-83
2020/12/28 03:53:11;;;;;;;5.07;4.07;;;;;;;3.45;76.46;98132.94;4370621;32;33456;-84
2020/12/28 03:56:04;;;;;;;3.30;3.10;;;;;;;3.44;76.59;98131.28;4303151;32;33863;-83
2020/12/28 03:58:50;;;;;;;3.70;3.17;;;;;;;3.52;76.24;98133.22;4360903;32;34045;-83
2020/12/28 04:01:36;;;;;;;3.72;3.42;;;;;;;3.61;75.58;98130.53;4372654;32;33662;-83
2020/12/28 04:04:21;;;;;;;2.37;2.20;;;;;;;3.53;76.20;98124.34;4360692;32;33364;-83
2020/12/28 04:07:01;;;;;;;2.97;2.78;;;;;;;3.39;76.55;98124.75;4372182;32;35524;-84
2020/12/28 04:09:37;;;;;;;7.43;3.95;;;;;;;3.46;76.67;98112.72;4370942;32;34431;-85
2020/12/28 04:12:07;;;;;;;5.32;4.12;;;;;;;3.29;77.07;98106.41;4383194;32;33244;-86
2020/12/28 04:14:35;;;;;;;3.70;3.42;;;;;;;3.46;76.45;98100.44;4358766;32;33292;-83
2020/12/28 04:17:02;;;;;;;3.12;2.87;;;;;;;3.51;76.64;98097.38;4382834;32;34764;-84
2020/12/28 04:19:29;;;;;;;5.35;3.83;;;;;;;3.53;76.67;98101.53;4369989;32;32782;-83
2020/12/28 04:21:57;;;;;;;;;;;;;;;3.43;76.87;98094.63;4356517;32;33938;-85
2020/12/28 04:24:24;;;;;;;7.05;3.00;;;;;;;3.27;77.53;98097.00;4383108;32;34209;-84
2020/12/28 04:26:53;;;;;;;7.90;4.95;;;;;;;3.20;77.83;98093.25;4358253;32;35423;-84
2020/12/28 04:29:20;;;;;;;6.18;4.10;;;;;;;3.00;78.83;98095.09;4370438;32;32835;-85
2020/12/28 04:31:47;;;;;;;2.85;2.65;;;;;;;2.97;79.12;98097.16;4370695;32;32203;-84
2020/12/28 04:34:15;;;;;;;4.60;3.97;;;;;;;3.04;78.88;98091.19;4383234;32;33539;-84
2020/12/28 04:36:42;;;;;;;4.45;4.03;;;;;;;3.22;78.29;98096.59;4370375;32;35214;-84
2020/12/28 04:39:09;;;;;;;6.35;4.70;;;;;;;3.37;77.70;98097.81;4358134;32;33626;-84
2020/12/28 04:41:36;;;;;;;4.75;4.53;;;;;;;3.34;77.62;98082.31;4358098;32;34802;-84
2020/12/28 04:44:03;;;;;;;6.32;2.62;;;;;;;3.25;78.10;98075.28;4370599;32;32006;-83
2020/12/28 04:46:31;;;;;;;5.53;4.18;;;;;;;3.22;78.03;98059.81;4372189;32;34841;-83
2020/12/28 04:48:59;;;;;;;;;;;;;;;2.99;79.19;98055.81;4371037;32;33770;-83
2020/12/28 04:51:26;;;;;;;1.50;1.48;;;;;;;2.99;79.03;98061.06;4382089;32;33186;-83
2020/12/28 04:53:54;;;;;;;4.45;3.70;;;;;;;3.20;78.57;98059.94;4358294;32;33460;-83
2020/12/28 04:56:21;;;;;;;2.45;1.17;;;;;;;3.49;77.31;98049.37;4370448;32;35718;-83
2020/12/28 04:58:49;;;;;;;;;;;;;;;3.51;77.39;98057.94;4382789;32;33562;-84
2020/12/28 05:01:17;;;;;;;2.17;2.08;;;;;;;3.33;77.71;98054.38;4382712;32;32915;-84
2020/12/28 05:03:44;;;;;;;5.75;5.25;;;;;;;3.14;78.39;98064.94;4382618;32;32654;-83
2020/12/28 05:06:14;;;;;;;3.87;3.53;;;;;;;3.34;78.19;98051.59;4345605;32;34842;-84
2020/12/28 05:08:45;;;;;;;7.03;5.35;;;;;;;3.45;77.27;98061.12;4370219;32;33762;-83
2020/12/28 05:11:14;;;;;;;2.90;2.45;;;;;;;3.26;78.41;98062.00;4370002;32;33715;-83
2020/12/28 05:13:49;;;;;;;2.65;2.30;;;;;;;3.50;77.23;98051.03;4370276;32;34241;-83
2020/12/28 05:16:17;;;;;;;8.02;3.00;;;;;;;3.43;77.82;98052.56;4357919;32;35444;-83
2020/12/28 05:18:54;;;;;;;4.18;3.30;;;;;;;3.46;77.63;98047.84;4382553;32;34970;-83
2020/12/28 05:21:25;;;;;;;5.45;4.18;;;;;;;3.46;77.70;98050.50;4369580;32;33799;-84
2020/12/28 05:23:55;;;;;;;7.50;4.62;;;;;;;3.35;77.99;98039.31;4370086;32;33285;-84
2020/12/28 05:26:23;;;;;;;4.40;3.03;;;;;;;3.13;79.13;98044.88;4370133;32;35633;-83
2020/12/28 05:28:53;;;;;;;5.43;4.85;;;;;;;3.16;78.88;98037.56;4369838;32;35030;-83
2020/12/28 05:31:21;;;;;;;6.62;3.78;;;;;;;3.08;79.27;98034.81;4382435;32;33712;-84
2020/12/28 05:33:49;;;;;;;15.60;3.95;;;;;;;3.47;77.80;98030.28;4382181;32;32610;-86
2020/12/28 05:36:16;;;;;;;6.53;3.65;;;;;;;3.46;77.90;98016.31;4370038;32;35332;-84
2020/12/28 05:38:44;;;;;;;7.15;4.47;;;;;;;3.50;77.66;98020.28;4382477;32;35130;-84
2020/12/28 05:41:12;;;;;;;3.17;2.97;;;;;;;3.42;78.05;98022.00;4369964;32;32637;-83
2020/12/28 05:43:41;;;;;;;4.22;4.03;;;;;;;3.47;77.67;98025.00;4369713;32;31846;-83
2020/12/28 05:46:08;;;;;;;8.15;7.47;;;;;;;3.25;78.69;98018.31;4382168;32;33197;-85
2020/12/28 05:48:36;;;;;;;2.97;2.80;;;;;;;3.22;78.91;98002.00;4357208;32;33404;-84
2020/12/28 05:51:03;;;;;;;3.58;3.12;;;;;;;3.00;79.75;98008.41;4382160;32;32559;-83
2020/12/28 05:53:36;;;;;;;7.17;5.07;;;;;;;2.74;80.90;98007.31;4369820;32;34043;-83
2020/12/28 05:56:04;;;;;;;13.55;4.15;;;;;;;2.99;79.89;98012.00;4345270;32;34026;-83
2020/12/28 05:58:31;;;;;;;3.45;3.10;;;;;;;3.18;79.27;98016.38;4357239;32;34940;-83
2020/12/28 06:00:58;;;;;;;4.68;4.18;;;;;;;2.74;80.95;98020.44;4369702;32;33888;-83
2020/12/28 06:03:25;;;;;;;3.47;3.28;;;;;;;3.00;80.06;98032.03;4358378;32;33627;-83
2020/12/28 06:05:53;;;;;;;9.35;5.25;;;;;;;2.98;79.92;98043.66;4359102;32;33953;-83
2020/12/28 06:08:21;;;;;;;6.78;6.28;;;;;;;3.10;79.37;98059.13;4371650;32;34703;-84
2020/12/28 06:10:49;;;;;;;6.47;5.95;;;;;;;2.84;80.54;98031.78;4359601;32;33130;-86
2020/12/28 06:13:22;;;;;;;4.78;4.32;;;;;;;2.89;80.38;98034.81;4384215;32;33561;-83
2020/12/28 06:15:59;;;;;;;6.12;5.25;;;;;;;2.94;79.98;98029.97;4371520;32;35394;-84
2020/12/28 06:18:26;;;;;;;5.47;3.55;;;;;;;3.13;79.81;98029.94;4384021;32;34942;-84
2020/12/28 06:20:55;;;;;;;5.22;3.70;;;;;;;3.04;80.00;98046.53;4396435;32;32985;-83
2020/12/28 06:23:38;;;;;;;5.85;5.00;;;;;;;3.00;80.03;98044.34;4371305;32;33375;-84
2020/12/28 06:26:17;;;;;;;5.82;3.65;;;;;;;3.05;79.90;98050.81;4371698;32;34183;-83
2020/12/28 06:28:44;;;;;;;6.28;5.68;;;;;;;3.07;79.95;98055.94;4371430;32;35874;-83
2020/12/28 06:31:13;;;;;;;4.12;3.83;;;;;;;3.12;79.58;98056.38;4371233;32;32670;-82
2020/12/28 06:33:49;;;;;;;7.37;4.22;;;;;;;2.81;80.42;98050.44;4371249;32;33461;-83
2020/12/28 06:36:17;;;;;;;4.90;4.53;;;;;;;2.85;80.64;98064.94;4371678;32;34890;-86
2020/12/28 06:38:55;;;;;;;7.43;6.97;;;;;;;3.19;79.52;98070.56;4359082;32;33950;-84
2020/12/28 06:41:30;;;;;;;4.78;3.42;;;;;;;3.15;79.70;98072.66;4372010;32;32037;-83
2020/12/28 06:44:01;;;;;;;10.05;6.07;;;;;;;3.25;79.13;98070.88;4359360;32;32784;-84
2020/12/28 06:46:30;;;;;;;5.12;4.57;;;;;;;3.50;78.50;98069.44;4347173;32;34738;-84
2020/12/28 06:48:58;;;;;;;4.15;3.58;;;;;;;3.34;78.13;98067.38;4358680;32;35347;-83
2020/12/28 06:51:26;;;;;;;6.97;4.43;;;;;;;3.21;79.17;98064.22;4384070;32;32919;-84
2020/12/28 06:53:55;;;;;;;4.85;4.43;;;;;;;3.27;79.05;98074.19;4371317;32;34636;-84
2020/12/28 06:56:26;;;;;;;4.78;3.47;;;;;;;3.31;79.22;98080.00;4359242;32;34590;-83
2020/12/28 06:59:01;;;;;;;5.25;4.75;;;;;;;3.25;79.69;98099.78;4383754;32;35017;-83
2020/12/28 07:01:30;;;;;;;4.25;3.90;;;;;;;3.51;78.65;98102.63;4359447;32;32756;-84
2020/12/28 07:03:58;;;;;;;2.65;2.45;;;;;;;3.41;78.50;98107.91;4372586;32;34257;-82
2020/12/28 07:06:25;;;;;;;9.23;3.30;;;;;;;3.24;79.00;98102.53;4371405;32;34089;-83
2020/12/28 07:09:06;;;;;;;3.03;2.83;;;;;;;3.68;77.79;98099.28;4383412;32;34275;-84
2020/12/28 07:11:34;;;;;;;3.50;1.48;;;;;;;3.69;77.47;98098.31;4371480;32;33560;-83
2020/12/28 07:14:05;;;;;;;3.53;3.33;;;;;;;2.99;80.28;98101.31;4358399;32;33627;-84
2020/12/28 07:16:32;;;;;;;6.00;5.50;;;;;;;3.55;78.36;98096.94;4358911;32;34355;-84
2020/12/28 07:19:06;;;;;;;5.10;4.57;;;;;;;3.46;78.18;98113.56;4370937;32;34076;-84
2020/12/28 07:21:33;;;;;;;7.37;6.68;;;;;;;3.19;79.17;98116.09;4383609;32;33328;-85
2020/12/28 07:24:00;;;;;;;5.37;3.10;;;;;;;2.76;81.67;98118.28;4372376;32;33414;-84
2020/12/28 07:26:28;;;;;;;7.10;6.43;;;;;;;3.36;78.93;98125.91;4371497;32;34856;-83
2020/12/28 07:28:55;;;;;;;;;;;;;;;3.70;77.41;98115.72;4371036;32;34124;-85
2020/12/28 07:31:23;;;;;;;5.07;3.80;;;;;;;3.34;78.87;98121.75;4396078;32;32721;-84
2020/12/28 07:33:50;;;;;;;8.68;7.72;;;;;;;3.33;78.97;98117.47;4359253;32;34775;-83
2020/12/28 07:36:25;;;;;;;5.43;3.60;;;;;;;3.29;78.81;98113.44;4371404;32;34252;-85
2020/12/28 07:38:54;;;;;;;7.45;4.60;;;;;;;3.72;77.60;98114.62;4358887;32;32958;-84
2020/12/28 07:41:23;;;;;;;6.17;5.47;;;;;;;3.50;78.04;98129.91;4383890;32;33771;-85
2020/12/28 07:43:51;;;;;;;3.92;3.60;;;;;;;3.86;76.81;98127.31;4358012;32;32209;-85
2020/12/28 07:46:32;;;;;;;5.95;4.30;;;;;;;3.97;76.54;98131.56;4358594;32;34827;-87
2020/12/28 07:49:23;;;;;;;15.10;6.15;;;;;;;4.09;75.50;98125.16;4372313;32;34297;-86
2020/12/28 07:52:06;;;;;;;3.30;3.00;;;;;;;4.18;75.03;98121.66;4358966;32;32987;-85
2020/12/28 07:54:44;;;;;;;4.97;3.67;;;;;;;4.28;74.42;98123.28;4357518;32;34116;-86
2020/12/28 07:57:20;;;;;;;8.57;4.62;;;;;;;3.04;78.45;98116.66;4358548;32;34747;-88
2020/12/28 07:59:55;;;;;;;5.03;3.28;;;;;;;3.23;78.48;98121.91;4358713;32;34578;-87
2020/12/28 08:02:42;;;;;;;3.97;3.58;;;;;;;3.88;75.99;98129.81;4383353;32;32955;-87
2020/12/28 08:05:12;;;;;;;4.85;4.40;;;;;;;3.27;77.91;98134.63;4370296;32;33430;-86
2020/12/28 08:07:41;;;;;;;4.50;4.12;;;;;;;3.64;76.79;98132.06;4358688;32;34902;-85
2020/12/28 08:10:09;;;;;;;3.08;2.87;;;;;;;3.85;75.94;98128.28;4356999;32;33193;-86
2020/12/28 08:12:58;;;;;;;11.48;6.05;;;;;;;3.54;75.77;98139.16;4371122;32;33153;-86
2020/12/28 08:15:26;;;;;;;9.20;4.72;;;;;;;3.80;75.27;98135.75;4347096;32;34386;-85
2020/12/28 08:18:10;;;;;;;11.77;4.82;;;;;;;3.78;75.08;98134.28;4372046;32;34789;-85
2020/12/28 08:20:38;;;;;;;2.45;2.35;;;;;;;4.06;74.45;98136.78;4357988;32;34083;-85
2020/12/28 08:23:07;;;;;;;3.00;2.03;;;;;;;4.18;73.30;98134.81;4358146;32;33501;-86
2020/12/28 08:25:36;;;;;;;2.25;2.15;;;;;;;4.01;73.81;98138.19;4372000;32;34240;-85
2020/12/28 08:28:03;;;;;;;7.03;5.22;;;;;;;4.27;72.08;98129.50;4358223;32;35107;-88
2020/12/28 08:30:32;;;;;;;5.28;4.90;;;;;;;4.19;72.35;98133.84;4357245;32;34485;-87
2020/12/28 08:33:01;;;;;;;8.00;4.00;;;;;;;4.48;71.77;98137.16;4358256;32;32767;-87
2020/12/28 08:35:30;;;;;;;8.07;6.05;;;;;;;4.41;72.04;98136.09;4358621;32;33019;-86
2020/12/28 08:37:58;;;;;;;4.95;3.40;;;;;;;4.71;71.58;98133.16;4358038;32;35437;-86
2020/12/28 08:40:27;;;;;;;4.28;2.50;;;;;;;4.24;72.34;98123.72;4357846;32;33645;-91
2020/12/28 08:42:57;;;;;;;12.27;4.95;;;;;;;4.43;71.00;98126.25;4342015;32;32406;-90
2020/12/28 08:45:40;;;;;;;6.37;4.87;;;;;;;4.33;71.53;98123.66;4360339;32;33474;-90
2020/12/28 08:48:11;;;;;;;10.68;4.20;;;;;;;4.42;71.49;98114.06;4344899;32;34089;-86
2020/12/28 08:50:41;;;;;;;4.68;4.20;;;;;;;4.53;71.58;98130.47;4358668;32;34121;-85
2020/12/28 08:53:10;;;;;;;3.97;3.58;;;;;;;4.56;70.75;98124.09;4346352;32;32998;-86
2020/12/28 08:55:41;;;;;;;5.10;3.37;;;;;;;4.21;72.32;98138.00;4359087;32;33101;-86
2020/12/28 08:58:10;;;;;;;8.73;7.75;;;;;;;4.39;71.79;98148.56;4346687;32;34173;-84
2020/12/28 09:00:42;;;;;;;10.77;6.60;;;;;;;4.57;71.48;98139.75;4357555;32;34382;-88
2020/12/28 09:03:13;;;;;;;6.20;5.47;;;;;;;4.52;71.47;98141.19;4370151;32;33063;-86
2020/12/28 09:05:43;;;;;;;2.45;2.25;;;;;;;4.56;71.74;98147.78;4357952;32;33244;-87
2020/12/28 09:08:15;;;;;;;4.82;4.37;;;;;;;4.25;73.09;98156.97;4357718;32;33575;-86
2020/12/28 09:10:43;;;;;;;8.20;5.20;;;;;;;4.35;73.05;98152.47;4371445;32;33701;-86
2020/12/28 09:13:13;;;;;;;5.75;4.68;;;;;;;3.73;75.16;98168.88;4358079;32;32761;-86
2020/12/28 09:15:41;;;;;;;2.42;1.90;;;;;;;3.81;74.98;98162.91;4370257;32;33554;-86
2020/12/28 09:18:15;;;;;;;2.28;2.10;;;;;;;3.98;73.89;98167.44;4357357;32;34818;-84
2020/12/28 09:20:44;;;;;;;4.85;3.60;;;;;;;3.98;74.61;98155.09;4369723;32;34355;-86
2020/12/28 09:23:11;;;;;;;5.50;3.90;;;;;;;4.06;74.23;98149.94;4370986;32;33096;-84
2020/12/28 09:25:42;;;;;;;4.37;4.12;;;;;;;4.11;73.83;98139.84;4370114;32;33170;-87
2020/12/28 09:28:10;;;;;;;;;;;;;;;4.08;73.90;98136.66;4357704;32;34205;-86
2020/12/28 09:30:37;;;;;;;2.60;2.40;;;;;;;3.76;75.22;98139.66;4381893;32;34390;-86
2020/12/28 09:33:05;;;;;;;;;;;;;;;3.95;74.54;98136.97;4369984;32;33197;-86
2020/12/28 09:35:33;;;;;;;3.50;3.20;;;;;;;3.96;75.02;98130.72;4357516;32;34596;-86
2020/12/28 09:38:01;;;;;;;;;;;;;;;3.87;75.22;98118.44;4370879;32;36108;-88
2020/12/28 09:40:30;;;;;;;7.68;3.10;;;;;;;3.68;75.96;98122.94;4384126;32;34309;-85
2020/12/28 09:42:58;;;;;;;2.47;2.33;;;;;;;3.79;75.86;98112.25;4369428;32;33969;-88
2020/12/28 09:45:41;;;;;;;4.12;3.72;;;;;;;3.96;75.54;98112.31;4382411;32;34195;-81
2020/12/28 09:48:08;;;;;;;4.65;3.95;;;;;;;3.78;76.28;98105.34;4371705;32;34778;-85
2020/12/28 09:50:46;;;;;;;4.37;3.55;;;;;;;3.93;75.38;98102.09;4372662;32;35142;-85
2020/12/28 09:53:14;;;;;;;8.10;4.65;;;;;;;4.01;75.14;98093.47;4371439;32;33002;-86
2020/12/28 09:55:41;;;;;;;;;;;;;;;3.79;76.92;98104.34;4371941;32;33540;-85
2020/12/28 09:58:15;;;;;;;3.83;3.53;;;;;;;4.28;74.76;98101.38;4383158;32;35090;-86
2020/12/28 10:01:01;;;;;;;4.62;4.25;;;;;;;4.08;75.40;98105.09;4361469;32;34664;-85
2020/12/28 10:03:30;;;;;;;4.95;4.60;;;;;;;3.81;76.32;98098.00;4358755;32;32408;-85
2020/12/28 10:05:59;;;;;;;4.75;4.32;;;;;;;3.92;76.52;98099.59;4383903;32;31888;-86
2020/12/28 10:08:31;;;;;;;3.62;2.55;;;;;;;3.99;75.12;98105.94;4372712;32;34701;-84
2020/12/28 10:10:59;;;;;;;5.20;4.18;;;;;;;3.67;76.55;98116.00;4383237;32;33610;-85
2020/12/28 10:13:26;;;;;;;3.62;3.30;;;;;;;3.97;75.25;98116.59;4358623;32;32705;-86
2020/12/28 10:15:54;;;;;;;2.28;1.85;;;;;;;4.18;75.26;98121.66;4359198;32;33213;-85
2020/12/28 10:18:21;;;;;;;5.03;4.28;;;;;;;4.18;74.81;98116.41;4371314;32;35421;-85
2020/12/28 10:20:49;;;;;;;5.72;5.18;;;;;;;3.96;75.72;98120.22;4369792;32;32865;-85
2020/12/28 10:23:16;;;;;;;6.35;5.85;;;;;;;4.23;75.32;98114.12;4371170;32;34045;-84
2020/12/28 10:25:44;;;;;;;4.60;4.28;;;;;;;4.38;74.98;98095.09;4371638;32;33206;-85
2020/12/28 10:28:12;;;;;;;9.68;8.85;;;;;;;4.31;75.02;98098.44;4370836;32;34657;-86
2020/12/28 10:30:40;;;;;;;2.83;2.47;;;;;;;4.16;75.82;98098.09;4371615;32;33996;-86
2020/12/28 10:33:08;;;;;;;5.70;4.50;;;;;;;4.47;74.04;98088.13;4378811;32;33189;-85
2020/12/28 10:35:36;;;;;;;7.00;5.03;;;;;;;4.29;75.03;98090.72;4372644;32;33089;-85
2020/12/28 10:38:05;;;;;;;9.45;7.40;;;;;;;4.46;74.28;98086.47;4371236;32;34100;-85
2020/12/28 10:40:40;;;;;;;5.90;5.37;;;;;;;4.37;74.72;98082.09;4365969;32;34330;-83
2020/12/28 10:43:09;;;;;;;4.18;3.90;;;;;;;4.37;74.05;98071.56;4367599;32;33421;-83
2020/12/28 10:45:36;;;;;;;3.67;3.37;;;;;;;4.16;74.71;98069.16;4388349;32;33815;-87
2020/12/28 10:48:07;;;;;;;15.40;6.90;;;;;;;3.92;75.87;98079.41;4381921;32;34292;-87
2020/12/28 10:50:34;;;;;;;3.30;2.97;;;;;;;4.07;75.40;98085.81;4381126;32;35659;-86
2020/12/28 10:53:02;;;;;;;2.60;2.40;;;;;;;4.27;75.04;98076.03;4369829;32;33864;-85
2020/12/28 10:55:29;;;;;;;6.95;5.87;;;;;;;4.05;75.23;98064.09;4356502;32;34125;-85
2020/12/28 10:57:56;;;;;;;7.23;5.30;;;;;;;4.16;75.40;98063.91;4359079;32;35613;-86
2020/12/28 11:00:23;;;;;;;4.32;4.00;;;;;;;4.07;75.15;98067.41;4369222;32;35257;-86
2020/12/28 11:02:54;;;;;;;10.90;6.65;;;;;;;4.07;75.22;98059.50;4382296;32;32931;-84
2020/12/28 11:05:23;;;;;;;4.55;3.97;;;;;;;4.25;74.88;98055.13;4366468;32;33388;-85
2020/12/28 11:07:53;;;;;;;3.97;3.65;;;;;;;4.18;75.24;98046.19;4370745;32;34494;-87
2020/12/28 11:10:24;;;;;;;3.47;3.07;;;;;;;4.07;75.85;98067.41;4370816;32;33466;-87
2020/12/28 11:12:55;;;;;;;9.32;5.62;;;;;;;4.31;75.00;98064.22;4382460;32;33814;-86
2020/12/28 11:15:22;;;;;;;3.90;2.17;;;;;;;4.45;74.63;98059.28;4370238;32;32962;-86
2020/12/28 11:17:51;;;;;;;7.78;4.20;;;;;;;4.24;75.06;98044.75;4382609;32;34122;-89
2020/12/28 11:20:34;;;;;;;7.12;6.43;;;;;;;4.22;75.41;98051.94;4369934;32;33934;-88
2020/12/28 11:23:21;;;;;;;4.18;3.75;;;;;;;4.10;75.76;98035.56;4372065;32;33939;-85
2020/12/28 11:25:53;;;;;;;5.60;4.18;;;;;;;4.23;75.09;98029.91;4370821;32;34272;-85
2020/12/28 11:28:40;;;;;;;4.22;3.83;;;;;;;4.16;75.28;98032.31;4360239;32;34338;-85
2020/12/28 11:31:28;;;;;;;3.15;2.72;;;;;;;4.05;75.46;98026.44;4350606;32;35044;-87
2020/12/28 11:34:12;;;;;;;11.23;7.45;;;;;;;3.79;76.49;98005.22;4358218;32;32481;-86
2020/12/28 11:36:46;;;;;;;6.37;5.87;;;;;;;3.95;76.15;98002.81;4380450;32;34049;-86
2020/12/28 11:39:34;;;;;;;;;;;;;;;3.94;76.73;98009.06;4371523;32;34674;-87
2020/12/28 11:42:03;;;;;;;6.62;4.18;;;;;;;4.28;75.11;98017.16;4372301;32;33922;-86
2020/12/28 11:44:39;;;;;;;3.90;3.03;;;;;;;4.24;75.53;98010.56;4348102;32;32858;-85
2020/12/28 11:47:13;;;;;;;10.43;4.25;;;;;;;4.31;75.43;98019.47;4382510;32;34184;-86
2020/12/28 11:50:01;;;;;;;4.85;3.75;;;;;;;4.26;75.40;98024.38;4370247;32;35036;-85
2020/12/28 11:52:31;;;;;;;3.47;3.20;;;;;;;4.20;75.34;98025.81;4369881;32;32940;-86
2020/12/28 11:54:59;;;;;;;7.53;5.12;;;;;;;4.42;74.79;98011.41;4381970;32;33149;-85
2020/12/28 11:57:27;;;;;;;4.55;4.25;;;;;;;4.34;75.28;97998.16;4381602;32;32287;-86
2020/12/28 11:59:58;;;;;;;11.80;6.05;;;;;;;4.59;74.75;98000.03;4357789;32;34294;-86
2020/12/28 12:02:47;;;;;;;4.40;3.87;;;;;;;4.78;74.06;98000.69;4369920;32;33436;-85
2020/12/28 12:05:18;;;;;;;7.28;3.83;;;;;;;5.04;73.54;97996.31;4357428;32;32813;-85